createdAt,value
2022-09-20T00:00:43.634Z,933.10
2022-09-20T00:01:43.683Z,933.05
2022-09-20T00:02:43.593Z,933.02
2022-09-20T00:03:43.609Z,933.01
2022-09-20T00:04:43.676Z,933.00
2022-09-20T00:05:43.635Z,932.98
2022-09-20T00:06:43.648Z,932.99
2022-09-20T00:07:43.662Z,932.99
2022-09-20T00:08:43.673Z,932.91
2022-09-20T00:09:43.689Z,932.83
2022-09-20T00:10:43.775Z,932.79
2022-09-20T00:11:43.719Z,932.77
2022-09-20T00:12:43.734Z,932.70
2022-09-20T00:13:43.741Z,932.76
2022-09-20T00:14:43.756Z,932.70
2022-09-20T00:15:43.771Z,932.68
2022-09-20T00:16:43.836Z,932.73
2022-09-20T00:17:43.794Z,932.82
2022-09-20T00:18:43.830Z,932.87
2022-09-20T00:19:43.825Z,932.87
2022-09-20T00:20:43.836Z,932.84
2022-09-20T00:21:43.848Z,932.86
2022-09-20T00:22:43.863Z,932.81
2022-09-20T00:23:43.878Z,932.75
2022-09-20T00:24:48.768Z,932.73
2022-09-20T00:25:43.903Z,932.75
2022-09-20T00:26:43.936Z,932.67
2022-09-20T00:27:43.934Z,932.68
2022-09-20T00:28:43.944Z,932.73
2022-09-20T00:29:43.955Z,932.72
2022-09-20T00:30:43.971Z,932.79
2022-09-20T00:31:44.056Z,932.79
2022-09-20T00:32:43.998Z,932.72
2022-09-20T00:33:44.011Z,932.71
2022-09-20T00:34:44.026Z,932.70
2022-09-20T00:35:44.038Z,932.66
2022-09-20T00:36:44.051Z,932.67
2022-09-20T00:37:44.066Z,932.68
2022-09-20T00:38:44.079Z,932.72
2022-09-20T00:39:44.094Z,932.67
2022-09-20T00:40:44.186Z,932.69
2022-09-20T00:41:44.127Z,932.70
2022-09-20T00:42:44.153Z,932.68
2022-09-20T00:43:44.150Z,932.71
2022-09-20T00:44:44.159Z,932.71
2022-09-20T00:45:44.249Z,932.70
2022-09-20T00:46:44.187Z,932.70
2022-09-20T00:47:44.200Z,932.70
2022-09-20T00:48:44.215Z,932.73
2022-09-20T00:49:44.226Z,932.75
2022-09-20T00:50:44.240Z,932.75
2022-09-20T00:51:44.252Z,932.72
2022-09-20T00:52:44.266Z,932.72
2022-09-20T00:53:44.481Z,932.74
2022-09-20T00:54:44.296Z,932.69
2022-09-20T00:55:44.307Z,932.69
2022-09-20T00:56:44.319Z,932.72
2022-09-20T00:57:44.333Z,932.66
2022-09-20T00:58:44.367Z,932.65
2022-09-20T00:59:44.360Z,932.63
2022-09-20T01:00:44.405Z,932.64
2022-09-20T01:01:44.425Z,932.62
2022-09-20T01:02:44.527Z,932.58
2022-09-20T01:03:44.414Z,932.57
2022-09-20T01:04:44.426Z,932.51
2022-09-20T01:05:44.442Z,932.49
2022-09-20T01:06:44.454Z,932.58
2022-09-20T01:07:44.468Z,932.54
2022-09-20T01:08:44.481Z,932.57
2022-09-20T01:09:44.495Z,932.59
2022-09-20T01:10:44.508Z,932.60
2022-09-20T01:11:44.521Z,932.64
2022-09-20T01:12:44.533Z,932.63
2022-09-20T01:13:44.549Z,932.64
2022-09-20T01:14:44.581Z,932.61
2022-09-20T01:15:44.574Z,932.58
2022-09-20T01:16:44.614Z,932.54
2022-09-20T01:17:44.602Z,932.48
2022-09-20T01:18:44.615Z,932.44
2022-09-20T01:19:44.630Z,932.47
2022-09-20T01:20:44.642Z,932.46
2022-09-20T01:21:44.663Z,932.48
2022-09-20T01:22:44.670Z,932.52
2022-09-20T01:23:44.683Z,932.55
2022-09-20T01:24:44.701Z,932.45
2022-09-20T01:25:44.709Z,932.46
2022-09-20T01:26:44.723Z,932.50
2022-09-20T01:27:44.735Z,932.44
2022-09-20T01:28:44.749Z,932.50
2022-09-20T01:29:44.763Z,932.52
2022-09-20T01:30:44.794Z,932.53
2022-09-20T01:31:44.852Z,932.51
2022-09-20T01:32:44.805Z,932.49
2022-09-20T01:33:44.817Z,932.49
2022-09-20T01:34:44.830Z,932.49
2022-09-20T01:35:44.844Z,932.51
2022-09-20T01:36:44.858Z,932.44
2022-09-20T01:37:44.869Z,932.44
2022-09-20T01:38:44.884Z,932.44
2022-09-20T01:39:44.896Z,932.40
2022-09-20T01:40:45.012Z,932.38
2022-09-20T01:41:44.923Z,932.38
2022-09-20T01:42:44.938Z,932.36
2022-09-20T01:43:44.952Z,932.35
2022-09-20T01:44:44.963Z,932.37
2022-09-20T01:45:45.054Z,932.30
2022-09-20T01:46:45.010Z,932.31
2022-09-20T01:47:45.003Z,932.29
2022-09-20T01:48:45.016Z,932.29
2022-09-20T01:49:45.030Z,932.30
2022-09-20T01:50:45.045Z,932.26
2022-09-20T01:51:45.058Z,932.23
2022-09-20T01:52:45.070Z,932.22
2022-09-20T01:53:45.085Z,932.25
2022-09-20T01:54:45.099Z,932.22
2022-09-20T01:55:45.111Z,932.19
2022-09-20T01:56:45.125Z,932.16
2022-09-20T01:57:45.143Z,932.10
2022-09-20T01:58:46.987Z,932.12
2022-09-20T01:59:45.166Z,932.11
2022-09-20T02:00:45.234Z,932.13
2022-09-20T02:01:45.191Z,932.11
2022-09-20T02:02:45.356Z,932.13
2022-09-20T02:03:45.218Z,932.16
2022-09-20T02:04:45.233Z,932.17
2022-09-20T02:05:45.243Z,932.14
2022-09-20T02:06:45.258Z,932.17
2022-09-20T02:07:45.269Z,932.13
2022-09-20T02:08:45.285Z,932.20
2022-09-20T02:09:45.297Z,932.21
2022-09-20T02:10:45.313Z,932.17
2022-09-20T02:11:45.324Z,932.19
2022-09-20T02:12:45.338Z,932.17
2022-09-20T02:13:45.351Z,932.12
2022-09-20T02:14:45.366Z,932.13
2022-09-20T02:15:45.377Z,932.17
2022-09-20T02:16:45.513Z,932.15
2022-09-20T02:17:45.409Z,932.18
2022-09-20T02:18:45.438Z,932.20
2022-09-20T02:19:45.434Z,932.17
2022-09-20T02:20:45.444Z,932.18
2022-09-20T02:21:45.458Z,932.15
2022-09-20T02:22:45.470Z,932.09
2022-09-20T02:23:45.484Z,932.12
2022-09-20T02:24:45.496Z,932.12
2022-09-20T02:25:45.513Z,932.11
2022-09-20T02:26:45.524Z,932.15
2022-09-20T02:27:45.538Z,932.13
2022-09-20T02:28:45.549Z,932.09
2022-09-20T02:29:45.566Z,932.08
2022-09-20T02:30:45.577Z,932.06
2022-09-20T02:31:45.649Z,932.01
2022-09-20T02:32:45.604Z,931.97
2022-09-20T02:33:45.616Z,931.95
2022-09-20T02:34:45.650Z,931.96
2022-09-20T02:35:45.642Z,931.94
2022-09-20T02:36:45.656Z,931.96
2022-09-20T02:37:45.672Z,931.95
2022-09-20T02:38:45.684Z,931.92
2022-09-20T02:39:45.698Z,931.89
2022-09-20T02:40:45.790Z,931.83
2022-09-20T02:41:45.723Z,931.77
2022-09-20T02:42:45.738Z,931.73
2022-09-20T02:43:45.756Z,931.64
2022-09-20T02:44:45.763Z,931.63
2022-09-20T02:45:45.854Z,931.54
2022-09-20T02:46:45.794Z,931.50
2022-09-20T02:47:45.808Z,931.46
2022-09-20T02:48:45.818Z,931.48
2022-09-20T02:49:45.830Z,931.45
2022-09-20T02:50:45.860Z,931.46
2022-09-20T02:51:45.856Z,931.43
2022-09-20T02:52:45.869Z,931.47
2022-09-20T02:53:45.881Z,931.44
2022-09-20T02:54:45.909Z,931.54
2022-09-20T02:55:45.908Z,931.53
2022-09-20T02:56:45.921Z,931.54
2022-09-20T02:57:45.935Z,931.55
2022-09-20T02:58:45.948Z,931.59
2022-09-20T02:59:45.961Z,931.55
2022-09-20T03:00:45.992Z,931.54
2022-09-20T03:01:46.245Z,931.46
2022-09-20T03:02:46.001Z,931.39
2022-09-20T03:03:46.014Z,931.36
2022-09-20T03:04:46.027Z,931.34
2022-09-20T03:05:46.041Z,931.28
2022-09-20T03:06:46.074Z,931.31
2022-09-20T03:07:46.066Z,931.32
2022-09-20T03:08:46.088Z,931.31
2022-09-20T03:09:46.094Z,931.30
2022-09-20T03:10:46.112Z,931.26
2022-09-20T03:11:46.119Z,931.28
2022-09-20T03:12:46.132Z,931.26
2022-09-20T03:13:46.147Z,931.23
2022-09-20T03:14:46.160Z,931.23
2022-09-20T03:15:46.172Z,931.19
2022-09-20T03:16:50.047Z,931.21
2022-09-20T03:17:46.197Z,931.19
2022-09-20T03:18:46.212Z,931.22
2022-09-20T03:19:46.226Z,931.20
2022-09-20T03:20:46.237Z,931.18
2022-09-20T03:21:46.251Z,931.20
2022-09-20T03:22:46.283Z,931.20
2022-09-20T03:23:46.277Z,931.15
2022-09-20T03:24:46.290Z,931.19
2022-09-20T03:25:46.311Z,931.10
2022-09-20T03:26:46.317Z,931.08
2022-09-20T03:27:46.333Z,931.05
2022-09-20T03:28:46.345Z,931.01
2022-09-20T03:29:46.355Z,930.97
2022-09-20T03:30:46.370Z,930.91
2022-09-20T03:31:46.508Z,930.88
2022-09-20T03:32:46.396Z,930.83
2022-09-20T03:33:46.410Z,930.76
2022-09-20T03:34:46.422Z,930.78
2022-09-20T03:35:46.438Z,930.76
2022-09-20T03:36:46.448Z,930.81
2022-09-20T03:37:46.461Z,930.82
2022-09-20T03:38:46.492Z,930.82
2022-09-20T03:39:46.488Z,930.83
2022-09-20T03:40:46.901Z,930.79
2022-09-20T03:41:46.514Z,930.78
2022-09-20T03:42:46.527Z,930.71
2022-09-20T03:43:46.543Z,930.70
2022-09-20T03:44:46.558Z,930.68
2022-09-20T03:45:46.628Z,930.70
2022-09-20T03:46:46.584Z,930.67
2022-09-20T03:47:46.594Z,930.70
2022-09-20T03:48:46.605Z,930.67
2022-09-20T03:49:46.618Z,930.68
2022-09-20T03:50:46.632Z,930.64
2022-09-20T03:51:46.646Z,930.62
2022-09-20T03:52:46.658Z,930.61
2022-09-20T03:53:46.673Z,930.65
2022-09-20T03:54:46.702Z,930.65
2022-09-20T03:55:46.699Z,930.62
2022-09-20T03:56:46.712Z,930.59
2022-09-20T03:57:46.723Z,930.54
2022-09-20T03:58:46.737Z,930.55
2022-09-20T03:59:46.752Z,930.54
2022-09-20T04:00:46.816Z,930.54
2022-09-20T04:01:46.776Z,930.48
2022-09-20T04:02:46.858Z,930.47
2022-09-20T04:03:46.824Z,930.51
2022-09-20T04:04:46.816Z,930.45
2022-09-20T04:05:46.834Z,930.42
2022-09-20T04:06:46.842Z,930.41
2022-09-20T04:07:46.854Z,930.38
2022-09-20T04:08:46.868Z,930.34
2022-09-20T04:09:46.880Z,930.31
2022-09-20T04:10:46.918Z,930.19
2022-09-20T04:11:46.906Z,930.15
2022-09-20T04:12:46.921Z,930.09
2022-09-20T04:13:46.934Z,930.04
2022-09-20T04:14:46.948Z,930.03
2022-09-20T04:15:46.958Z,929.96
2022-09-20T04:16:47.055Z,929.96
2022-09-20T04:17:46.984Z,929.92
2022-09-20T04:18:46.998Z,929.88
2022-09-20T04:19:47.012Z,929.87
2022-09-20T04:20:47.023Z,929.87
2022-09-20T04:21:47.038Z,929.94
2022-09-20T04:22:47.053Z,930.01
2022-09-20T04:23:47.062Z,930.03
2022-09-20T04:24:47.077Z,930.02
2022-09-20T04:25:47.089Z,930.00
2022-09-20T04:26:47.128Z,929.96
2022-09-20T04:27:47.127Z,929.93
2022-09-20T04:28:47.127Z,929.88
2022-09-20T04:29:47.142Z,929.87
2022-09-20T04:30:47.155Z,929.89
2022-09-20T04:31:50.865Z,929.90
2022-09-20T04:32:47.179Z,929.96
2022-09-20T04:33:47.193Z,930.00
2022-09-20T04:34:47.208Z,929.95
2022-09-20T04:35:47.219Z,929.98
2022-09-20T04:36:47.234Z,929.99
2022-09-20T04:37:47.246Z,929.96
2022-09-20T04:38:47.260Z,929.97
2022-09-20T04:39:47.271Z,929.98
2022-09-20T04:40:47.403Z,929.99
2022-09-20T04:41:47.297Z,930.03
2022-09-20T04:42:47.327Z,930.00
2022-09-20T04:43:47.329Z,930.08
2022-09-20T04:44:47.338Z,930.14
2022-09-20T04:45:47.394Z,930.13
2022-09-20T04:46:47.364Z,930.16
2022-09-20T04:47:47.376Z,930.16
2022-09-20T04:48:47.388Z,930.14
2022-09-20T04:49:47.401Z,930.13
2022-09-20T04:50:47.416Z,930.15
2022-09-20T04:51:47.427Z,930.12
2022-09-20T04:52:47.440Z,930.12
2022-09-20T04:53:47.453Z,930.11
2022-09-20T04:54:47.468Z,930.13
2022-09-20T04:55:47.479Z,930.10
2022-09-20T04:56:47.491Z,930.13
2022-09-20T04:57:47.506Z,930.17
2022-09-20T04:58:47.539Z,930.16
2022-09-20T04:59:47.532Z,930.13
2022-09-20T05:00:47.569Z,930.14
2022-09-20T05:01:47.676Z,930.15
2022-09-20T05:02:47.570Z,930.16
2022-09-20T05:03:47.582Z,930.19
2022-09-20T05:04:47.594Z,930.21
2022-09-20T05:05:47.608Z,930.13
2022-09-20T05:06:47.620Z,930.20
2022-09-20T05:07:47.635Z,930.23
2022-09-20T05:08:47.646Z,930.19
2022-09-20T05:09:47.659Z,930.17
2022-09-20T05:10:47.674Z,930.13
2022-09-20T05:11:47.688Z,930.06
2022-09-20T05:12:47.699Z,930.03
2022-09-20T05:13:47.712Z,930.08
2022-09-20T05:14:47.748Z,930.09
2022-09-20T05:15:47.741Z,930.15
2022-09-20T05:16:47.772Z,930.18
2022-09-20T05:17:47.763Z,930.24
2022-09-20T05:18:47.777Z,930.24
2022-09-20T05:19:47.790Z,930.23
2022-09-20T05:20:47.802Z,930.22
2022-09-20T05:21:47.816Z,930.16
2022-09-20T05:22:47.829Z,930.17
2022-09-20T05:23:47.843Z,930.15
2022-09-20T05:24:47.853Z,930.17
2022-09-20T05:25:47.867Z,930.07
2022-09-20T05:26:47.880Z,930.08
2022-09-20T05:27:47.893Z,930.04
2022-09-20T05:28:47.906Z,930.03
2022-09-20T05:29:47.919Z,930.03
2022-09-20T05:30:47.951Z,930.00
2022-09-20T05:31:48.001Z,930.02
2022-09-20T05:32:47.958Z,930.00
2022-09-20T05:33:47.972Z,929.94
2022-09-20T05:34:47.987Z,929.93
2022-09-20T05:35:47.996Z,929.96
2022-09-20T05:36:48.008Z,929.97
2022-09-20T05:37:48.021Z,929.99
2022-09-20T05:38:48.035Z,930.03
2022-09-20T05:39:48.048Z,930.05
2022-09-20T05:40:48.060Z,930.09
2022-09-20T05:41:48.074Z,930.11
2022-09-20T05:42:48.088Z,930.11
2022-09-20T05:43:48.101Z,930.17
2022-09-20T05:44:48.112Z,930.19
2022-09-20T05:45:48.265Z,930.25
2022-09-20T05:46:48.172Z,930.43
2022-09-20T05:47:48.151Z,930.57
2022-09-20T05:48:48.164Z,930.79
2022-09-20T05:49:48.178Z,931.20
2022-09-20T05:50:48.190Z,931.92
2022-09-20T05:51:48.204Z,932.71
2022-09-20T05:52:48.215Z,933.19
2022-09-20T05:53:48.232Z,933.37
2022-09-20T05:54:48.243Z,933.29
2022-09-20T05:55:48.255Z,933.04
2022-09-20T05:56:48.553Z,932.61
2022-09-20T05:57:48.280Z,932.49
2022-09-20T05:58:48.293Z,932.80
2022-09-20T05:59:48.305Z,933.19
2022-09-20T06:00:48.340Z,933.29
2022-09-20T06:01:48.331Z,933.19
2022-09-20T06:02:48.377Z,932.89
2022-09-20T06:03:48.358Z,932.69
2022-09-20T06:04:48.369Z,932.77
2022-09-20T06:05:48.385Z,932.92
2022-09-20T06:06:48.394Z,932.98
2022-09-20T06:07:48.408Z,932.84
2022-09-20T06:08:48.423Z,932.67
2022-09-20T06:09:48.432Z,932.64
2022-09-20T06:10:48.446Z,932.69
2022-09-20T06:11:48.460Z,932.73
2022-09-20T06:12:48.473Z,932.72
2022-09-20T06:13:48.486Z,932.73
2022-09-20T06:14:48.504Z,932.69
2022-09-20T06:15:48.511Z,932.61
2022-09-20T06:16:48.548Z,932.57
2022-09-20T06:17:48.542Z,932.58
2022-09-20T06:18:48.567Z,932.63
2022-09-20T06:19:48.561Z,932.67
2022-09-20T06:20:48.576Z,932.60
2022-09-20T06:21:48.588Z,932.50
2022-09-20T06:22:48.600Z,932.50
2022-09-20T06:23:48.615Z,932.63
2022-09-20T06:24:48.629Z,932.73
2022-09-20T06:25:48.638Z,932.83
2022-09-20T06:26:48.652Z,932.91
2022-09-20T06:27:48.665Z,932.87
2022-09-20T06:28:48.755Z,932.83
2022-09-20T06:29:48.689Z,932.75
2022-09-20T06:30:48.767Z,932.67
2022-09-20T06:31:48.716Z,932.55
2022-09-20T06:32:48.728Z,932.53
2022-09-20T06:33:48.743Z,932.46
2022-09-20T06:34:48.780Z,932.40
2022-09-20T06:35:48.772Z,932.31
2022-09-20T06:36:48.780Z,932.27
2022-09-20T06:37:48.795Z,932.19
2022-09-20T06:38:48.805Z,932.14
2022-09-20T06:39:48.819Z,932.17
2022-09-20T06:40:48.831Z,932.23
2022-09-20T06:41:48.844Z,932.27
2022-09-20T06:42:48.856Z,932.29
2022-09-20T06:43:48.868Z,932.36
2022-09-20T06:44:48.882Z,932.33
2022-09-20T06:45:48.915Z,932.31
2022-09-20T06:46:48.909Z,932.30
2022-09-20T06:47:48.922Z,932.25
2022-09-20T06:48:48.933Z,932.24
2022-09-20T06:49:48.947Z,932.29
2022-09-20T06:50:48.975Z,932.37
2022-09-20T06:51:48.972Z,932.41
2022-09-20T06:52:48.984Z,932.39
2022-09-20T06:53:49.020Z,932.47
2022-09-20T06:54:49.010Z,932.52
2022-09-20T06:55:49.022Z,932.57
2022-09-20T06:56:49.035Z,932.59
2022-09-20T06:57:49.046Z,932.63
2022-09-20T06:58:49.060Z,932.62
2022-09-20T06:59:49.073Z,932.65
2022-09-20T07:00:49.144Z,932.59
2022-09-20T07:01:49.138Z,932.60
2022-09-20T07:02:49.110Z,932.59
2022-09-20T07:03:49.126Z,932.55
2022-09-20T07:04:49.135Z,932.58
2022-09-20T07:05:49.150Z,932.54
2022-09-20T07:06:49.181Z,932.59
2022-09-20T07:07:49.175Z,932.60
2022-09-20T07:08:49.197Z,932.56
2022-09-20T07:09:49.203Z,932.51
2022-09-20T07:10:49.215Z,932.51
2022-09-20T07:11:49.226Z,932.50
2022-09-20T07:12:49.239Z,932.49
2022-09-20T07:13:49.251Z,932.53
2022-09-20T07:14:49.267Z,932.54
2022-09-20T07:15:49.278Z,932.54
2022-09-20T07:16:49.297Z,932.54
2022-09-20T07:17:49.301Z,932.57
2022-09-20T07:18:49.315Z,932.54
2022-09-20T07:19:49.329Z,932.55
2022-09-20T07:20:49.338Z,932.54
2022-09-20T07:21:49.355Z,932.55
2022-09-20T07:22:49.384Z,932.53
2022-09-20T07:23:49.379Z,932.53
2022-09-20T07:24:49.393Z,932.57
2022-09-20T07:25:49.404Z,932.62
2022-09-20T07:26:49.417Z,932.63
2022-09-20T07:27:49.431Z,932.62
2022-09-20T07:28:49.452Z,932.63
2022-09-20T07:29:49.458Z,932.57
2022-09-20T07:30:49.467Z,932.58
2022-09-20T07:31:49.522Z,932.56
2022-09-20T07:32:49.492Z,932.56
2022-09-20T07:33:49.507Z,932.57
2022-09-20T07:34:49.518Z,932.56
2022-09-20T07:35:49.533Z,932.47
2022-09-20T07:36:49.544Z,932.40
2022-09-20T07:37:49.559Z,932.27
2022-09-20T07:38:49.604Z,932.21
2022-09-20T07:39:49.582Z,932.24
2022-09-20T07:40:49.596Z,932.27
2022-09-20T07:41:49.607Z,932.26
2022-09-20T07:42:53.041Z,932.18
2022-09-20T07:43:49.635Z,932.09
2022-09-20T07:44:49.647Z,932.05
2022-09-20T07:45:49.716Z,932.02
2022-09-20T07:46:49.674Z,931.99
2022-09-20T07:47:49.702Z,932.06
2022-09-20T07:48:49.696Z,932.16
2022-09-20T07:49:49.709Z,932.25
2022-09-20T07:50:49.723Z,932.32
2022-09-20T07:51:49.734Z,932.32
2022-09-20T07:52:49.746Z,932.31
2022-09-20T07:53:49.760Z,932.34
2022-09-20T07:54:49.791Z,932.34
2022-09-20T07:55:49.784Z,932.37
2022-09-20T07:56:49.798Z,932.32
2022-09-20T07:57:49.810Z,932.32
2022-09-20T07:58:52.446Z,932.28
2022-09-20T07:59:49.838Z,932.29
2022-09-20T08:00:49.899Z,932.39
2022-09-20T08:01:50.035Z,932.46
2022-09-20T08:02:49.876Z,932.53
2022-09-20T08:03:49.888Z,932.62
2022-09-20T08:04:49.907Z,932.62
2022-09-20T08:05:49.910Z,932.59
2022-09-20T08:06:49.925Z,932.54
2022-09-20T08:07:49.938Z,932.48
2022-09-20T08:08:49.950Z,932.51
2022-09-20T08:09:49.962Z,932.52
2022-09-20T08:10:50.003Z,932.55
2022-09-20T08:11:49.990Z,932.55
2022-09-20T08:14:06.889Z,932.47
2022-09-20T08:14:50.028Z,932.44
2022-09-20T08:15:50.039Z,932.36
2022-09-20T08:16:50.158Z,932.37
2022-09-20T08:17:50.064Z,932.38
2022-09-20T08:18:50.091Z,932.40
2022-09-20T08:19:50.089Z,932.40
2022-09-20T08:20:50.188Z,932.42
2022-09-20T08:21:50.114Z,932.39
2022-09-20T08:23:12.523Z,932.41
2022-09-20T08:23:50.141Z,932.46
2022-09-20T08:24:50.153Z,932.48
2022-09-20T08:25:50.238Z,932.49
2022-09-20T08:26:50.196Z,932.49
2022-09-20T08:27:50.193Z,932.47
2022-09-20T08:28:50.205Z,932.38
2022-09-20T08:29:50.215Z,932.36
2022-09-20T08:30:50.330Z,932.35
2022-09-20T08:31:50.266Z,932.29
2022-09-20T08:32:50.253Z,932.23
2022-09-20T08:33:50.267Z,932.22
2022-09-20T08:34:50.281Z,932.15
2022-09-20T08:35:50.292Z,932.12
2022-09-20T08:36:50.304Z,932.11
2022-09-20T08:37:50.674Z,932.11
2022-09-20T08:39:58.413Z,932.04
2022-09-20T08:40:50.449Z,932.02
2022-09-20T08:41:50.368Z,931.92
2022-09-20T08:42:50.398Z,931.85
2022-09-20T08:43:50.393Z,931.81
2022-09-20T08:44:57.924Z,931.77
2022-09-20T08:45:50.534Z,931.75
2022-09-20T08:46:50.430Z,931.73
2022-09-20T08:47:50.443Z,931.69
2022-09-20T08:48:50.456Z,931.74
2022-09-20T08:49:56.399Z,931.72
2022-09-20T08:50:50.548Z,931.71
2022-09-20T08:51:50.494Z,931.71
2022-09-20T08:52:50.505Z,931.70
2022-09-20T08:53:50.519Z,931.64
2022-09-20T08:54:50.531Z,931.64
2022-09-20T08:55:50.545Z,931.55
2022-09-20T08:56:50.557Z,931.54
2022-09-20T08:57:50.569Z,931.48
2022-09-20T08:58:50.611Z,931.46
2022-09-20T08:59:50.596Z,931.49
2022-09-20T09:00:50.792Z,931.53
2022-09-20T09:01:50.623Z,931.51
2022-09-20T09:02:50.635Z,931.50
2022-09-20T09:03:50.645Z,931.47
2022-09-20T09:04:50.657Z,931.41
2022-09-20T09:05:50.671Z,931.29
2022-09-20T09:06:50.683Z,931.23
2022-09-20T09:07:50.696Z,931.19
2022-09-20T09:08:50.711Z,931.19
2022-09-20T09:09:50.720Z,931.20
2022-09-20T09:10:50.734Z,931.19
2022-09-20T09:11:50.746Z,931.22
2022-09-20T09:12:50.758Z,931.22
2022-09-20T09:13:50.772Z,931.16
2022-09-20T09:14:50.802Z,931.15
2022-09-20T09:15:50.907Z,931.05
2022-09-20T09:16:50.846Z,930.99
2022-09-20T09:17:50.822Z,930.98
2022-09-20T09:18:50.837Z,930.93
2022-09-20T09:19:50.846Z,930.84
2022-09-20T09:20:50.895Z,930.80
2022-09-20T09:21:50.870Z,930.69
2022-09-20T09:22:50.928Z,930.61
2022-09-20T09:23:50.897Z,930.51
2022-09-20T09:24:50.909Z,930.45
2022-09-20T09:25:50.920Z,930.47
2022-09-20T09:26:50.936Z,930.40
2022-09-20T09:27:50.947Z,930.38
2022-09-20T09:28:50.959Z,930.34
2022-09-20T09:29:50.973Z,930.29
2022-09-20T09:30:51.006Z,930.25
2022-09-20T09:31:51.140Z,930.29
2022-09-20T09:32:51.011Z,930.32
2022-09-20T09:33:51.023Z,930.42
2022-09-20T09:34:51.034Z,930.48
2022-09-20T09:35:51.049Z,930.54
2022-09-20T09:36:51.062Z,930.61
2022-09-20T09:37:51.071Z,930.62
2022-09-20T09:38:51.114Z,930.61
2022-09-20T09:39:51.098Z,930.63
2022-09-20T09:40:51.111Z,930.61
2022-09-20T09:41:51.123Z,930.63
2022-09-20T09:42:51.136Z,930.71
2022-09-20T09:43:51.148Z,930.74
2022-09-20T09:44:51.160Z,930.81
2022-09-20T09:45:51.250Z,930.88
2022-09-20T09:46:51.203Z,930.96
2022-09-20T09:47:51.199Z,931.00
2022-09-20T09:48:51.211Z,931.10
2022-09-20T09:49:51.230Z,931.15
2022-09-20T09:50:51.237Z,931.21
2022-09-20T09:51:51.249Z,931.24
2022-09-20T09:52:51.261Z,931.25
2022-09-20T09:53:51.276Z,931.20
2022-09-20T09:54:51.295Z,931.14
2022-09-20T09:55:51.306Z,931.18
2022-09-20T09:56:51.311Z,931.17
2022-09-20T09:57:51.330Z,931.19
2022-09-20T09:58:51.346Z,931.14
2022-09-20T09:59:51.360Z,931.09
2022-09-20T10:00:51.392Z,931.08
2022-09-20T10:01:51.440Z,931.03
2022-09-20T10:02:51.404Z,931.07
2022-09-20T10:03:51.400Z,931.09
2022-09-20T10:04:51.412Z,931.06
2022-09-20T10:05:51.425Z,931.06
2022-09-20T10:06:52.479Z,931.01
2022-09-20T10:07:51.450Z,931.04
2022-09-20T10:08:51.466Z,930.98
2022-09-20T10:09:51.475Z,930.97
2022-09-20T10:10:51.488Z,930.99
2022-09-20T10:11:51.500Z,931.02
2022-09-20T10:12:51.514Z,931.07
2022-09-20T10:13:51.525Z,931.08
2022-09-20T10:14:51.539Z,931.11
2022-09-20T10:15:51.550Z,931.09
2022-09-20T10:16:51.672Z,931.10
2022-09-20T10:17:51.575Z,931.16
2022-09-20T10:18:51.605Z,931.21
2022-09-20T10:19:51.600Z,931.25
2022-09-20T10:20:51.612Z,931.22
2022-09-20T10:21:51.626Z,931.19
2022-09-20T10:23:21.724Z,931.16
2022-09-20T10:24:03.293Z,931.19
2022-09-20T10:24:51.831Z,931.20
2022-09-20T10:25:51.676Z,931.24
2022-09-20T10:26:51.688Z,931.25
2022-09-20T10:27:51.702Z,931.28
2022-09-20T10:28:51.712Z,931.33
2022-09-20T10:29:51.724Z,931.32
2022-09-20T10:30:51.796Z,931.35
2022-09-20T10:31:51.750Z,931.31
2022-09-20T10:32:51.762Z,931.36
2022-09-20T10:33:51.775Z,931.35
2022-09-20T10:34:51.809Z,931.36
2022-09-20T10:35:51.800Z,931.38
2022-09-20T10:36:51.813Z,931.39
2022-09-20T10:37:51.826Z,931.41
2022-09-20T10:38:51.838Z,931.44
2022-09-20T10:39:51.851Z,931.44
2022-09-20T10:40:51.862Z,931.44
2022-09-20T10:41:51.876Z,931.49
2022-09-20T10:42:51.889Z,931.45
2022-09-20T10:43:51.901Z,931.52
2022-09-20T10:44:51.912Z,931.56
2022-09-20T10:46:52.052Z,931.53
2022-09-20T10:47:51.952Z,931.56
2022-09-20T10:48:51.963Z,931.61
2022-09-20T10:49:51.977Z,931.61
2022-09-20T10:50:52.006Z,931.60
2022-09-20T10:51:52.004Z,931.64
2022-09-20T10:52:52.013Z,931.65
2022-09-20T10:53:52.031Z,931.68
2022-09-20T10:54:52.039Z,931.75
2022-09-20T10:55:52.052Z,931.77
2022-09-20T10:56:52.063Z,931.81
2022-09-20T10:57:52.076Z,931.85
2022-09-20T10:58:52.089Z,931.90
2022-09-20T10:59:52.105Z,931.95
2022-09-20T11:00:52.154Z,932.01
2022-09-20T11:01:52.185Z,932.01
2022-09-20T11:02:52.159Z,932.02
2022-09-20T11:03:52.152Z,932.04
2022-09-20T11:04:52.164Z,932.05
2022-09-20T11:05:52.178Z,932.06
2022-09-20T11:06:52.210Z,932.09
2022-09-20T11:07:52.202Z,932.07
2022-09-20T11:08:52.230Z,932.10
2022-09-20T11:09:52.230Z,932.09
2022-09-20T11:10:52.242Z,932.10
2022-09-20T11:11:52.252Z,932.08
2022-09-20T11:12:52.265Z,932.06
2022-09-20T11:13:52.319Z,932.01
2022-09-20T11:14:52.291Z,932.03
2022-09-20T11:15:52.303Z,932.00
2022-09-20T11:16:52.375Z,931.99
2022-09-20T11:17:52.327Z,932.03
2022-09-20T11:18:52.374Z,932.03
2022-09-20T11:19:52.353Z,932.01
2022-09-20T11:20:52.366Z,932.07
2022-09-20T11:21:52.377Z,932.05
2022-09-20T11:22:52.412Z,932.07
2022-09-20T11:23:52.405Z,932.10
2022-09-20T11:24:52.415Z,932.11
2022-09-20T11:25:52.431Z,932.10
2022-09-20T11:26:52.443Z,932.09
2022-09-20T11:27:52.453Z,932.15
2022-09-20T11:28:52.470Z,932.09
2022-09-20T11:29:52.483Z,932.13
2022-09-20T11:30:52.492Z,932.08
2022-09-20T11:31:52.537Z,932.15
2022-09-20T11:32:52.527Z,932.17
2022-09-20T11:33:52.532Z,932.21
2022-09-20T11:34:52.547Z,932.19
2022-09-20T11:35:52.554Z,932.18
2022-09-20T11:36:52.571Z,932.18
2022-09-20T11:37:52.580Z,932.18
2022-09-20T11:38:53.584Z,932.20
2022-09-20T11:39:52.603Z,932.20
2022-09-20T11:40:52.617Z,932.21
2022-09-20T11:41:52.630Z,932.21
2022-09-20T11:42:52.642Z,932.16
2022-09-20T11:43:52.655Z,932.20
2022-09-20T11:44:52.666Z,932.20
2022-09-20T11:45:52.754Z,932.19
2022-09-20T11:46:52.693Z,932.16
2022-09-20T11:47:55.288Z,932.17
2022-09-20T11:48:52.763Z,932.18
2022-09-20T11:49:52.729Z,932.18
2022-09-20T11:50:52.745Z,932.20
2022-09-20T11:51:52.756Z,932.22
2022-09-20T11:52:52.768Z,932.23
2022-09-20T11:53:52.781Z,932.22
2022-09-20T11:54:52.823Z,932.24
2022-09-20T11:55:52.808Z,932.24
2022-09-20T11:56:52.819Z,932.25
2022-09-20T11:57:52.831Z,932.25
2022-09-20T11:58:52.846Z,932.19
2022-09-20T11:59:52.857Z,932.20
2022-09-20T12:00:52.875Z,932.14
2022-09-20T12:01:52.962Z,932.17
2022-09-20T12:02:53.094Z,932.18
2022-09-20T12:04:04.233Z,932.15
2022-09-20T12:04:52.920Z,932.17
2022-09-20T12:05:52.933Z,932.19
2022-09-20T12:06:52.946Z,932.19
2022-09-20T12:07:52.958Z,932.19
2022-09-20T12:08:52.970Z,932.21
2022-09-20T12:09:52.983Z,932.21
2022-09-20T12:10:53.024Z,932.20
2022-09-20T12:11:53.009Z,932.22
2022-09-20T12:12:53.021Z,932.16
2022-09-20T12:13:53.103Z,932.17
2022-09-20T12:14:53.046Z,932.20
2022-09-20T12:15:53.060Z,932.20
2022-09-20T12:16:53.136Z,932.19
2022-09-20T12:17:53.085Z,932.21
2022-09-20T12:18:53.098Z,932.24
2022-09-20T12:19:53.109Z,932.23
2022-09-20T12:20:53.123Z,932.22
2022-09-20T12:21:53.136Z,932.23
2022-09-20T12:22:53.149Z,932.21
2022-09-20T12:23:53.162Z,932.24
2022-09-20T12:24:53.173Z,932.21
2022-09-20T12:25:53.185Z,932.23
2022-09-20T12:26:53.223Z,932.25
2022-09-20T12:27:53.213Z,932.27
2022-09-20T12:28:53.267Z,932.25
2022-09-20T12:29:53.239Z,932.27
2022-09-20T12:30:53.250Z,932.30
2022-09-20T12:31:53.305Z,932.30